DLH19 ZSPD-UUEE
Flight info
| Callsign | DLH19 |
|---|---|
| Flight time | N/A |
| Altitude | 40100 |
| Route | POMOK G330 PIMOL A593 DALIM W157 VYK G212 SOTMU B339 POLHO |
| Aircraft | A333/H-SDE3GHIJ2J3J5M1RVWXY/LB2D1 |
Departure
| Time | 2026-04-30 17:48 |
|---|---|
| Airport | Shanghai Pudong International Airport (ZSPD) |
Arrival
| Time | N/A |
|---|---|
| Airport | Sheremetyevo International Airport (UUEE) |
| Time | Latitude | Longitude | Altitude | Speed | Heading |
|---|---|---|---|---|---|
| 2026-04-30 17:39 | 31.15594 | 121.79480 | 25 ft | 0 kts | 74° |
| 2026-04-30 17:42 | 31.15545 | 121.79367 | 21 ft | 0 kts | 343° |
| 2026-04-30 17:43 | 31.15515 | 121.79378 | 21 ft | 0 kts | 345° |
| 2026-04-30 17:44 | 31.15544 | 121.79365 | 21 ft | 9 kts | 331° |
| 2026-04-30 17:44 | 31.15553 | 121.79034 | 24 ft | 10 kts | 340° |
| 2026-04-30 17:46 | 31.16085 | 121.78833 | 27 ft | 26 kts | 342° |
| 2026-04-30 17:47 | 31.16027 | 121.78633 | 27 ft | 3 kts | 162° |
| 2026-04-30 17:48 | 31.14125 | 121.79347 | 144 ft | 186 kts | 163° |
| 2026-04-30 17:48 | 31.10547 | 121.80493 | 1813 ft | 186 kts | 168° |
| 2026-04-30 17:49 | 31.04553 | 121.82550 | 2688 ft | 268 kts | 164° |
| 2026-04-30 17:50 | 30.98201 | 121.80269 | 5575 ft | 263 kts | 257° |
| 2026-04-30 17:51 | 30.96700 | 121.73987 | 7902 ft | 268 kts | 258° |
| 2026-04-30 17:52 | 30.96915 | 121.67729 | 10174 ft | 257 kts | 287° |
| 2026-04-30 17:53 | 30.99183 | 121.55448 | 11944 ft | 333 kts | 287° |
| 2026-04-30 17:54 | 31.01144 | 121.44782 | 14463 ft | 339 kts | 287° |
| 2026-04-30 17:55 | 31.03131 | 121.33971 | 16628 ft | 346 kts | 286° |
| 2026-04-30 17:56 | 31.05162 | 121.22845 | 18678 ft | 353 kts | 287° |
| 2026-04-30 17:57 | 31.07504 | 121.14804 | 19973 ft | 354 kts | 311° |
| 2026-04-30 17:58 | 31.14522 | 121.12103 | 21317 ft | 376 kts | 352° |
| 2026-04-30 17:59 | 31.25219 | 121.11570 | 22729 ft | 383 kts | 350° |
| 2026-04-30 18:00 | 31.36034 | 121.11043 | 24122 ft | 389 kts | 354° |
| 2026-04-30 18:00 | 31.44254 | 121.11514 | 25049 ft | 384 kts | 348° |
| 2026-04-30 18:01 | 31.49269 | 121.09404 | 25606 ft | 375 kts | 331° |
| 2026-04-30 18:02 | 31.56382 | 121.05585 | 26806 ft | 374 kts | 331° |
| 2026-04-30 18:02 | 31.63579 | 121.01733 | 27780 ft | 377 kts | 331° |
| 2026-04-30 18:03 | 31.70761 | 120.97880 | 28786 ft | 377 kts | 330° |
| 2026-04-30 18:04 | 31.78093 | 120.93964 | 29681 ft | 377 kts | 330° |
| 2026-04-30 18:05 | 31.87746 | 120.88816 | 30944 ft | 375 kts | 330° |
| 2026-04-30 18:06 | 31.97324 | 120.83703 | 32287 ft | 369 kts | 329° |
| 2026-04-30 18:07 | 32.06632 | 120.78725 | 33401 ft | 367 kts | 329° |
| 2026-04-30 18:08 | 32.13595 | 120.74966 | 34371 ft | 359 kts | 326° |
| 2026-04-30 18:09 | 32.17482 | 120.64625 | 35340 ft | 366 kts | 282° |
| 2026-04-30 18:10 | 32.18404 | 120.52685 | 36533 ft | 359 kts | 283° |
| 2026-04-30 18:11 | 32.19371 | 120.40900 | 37273 ft | 358 kts | 282° |
| 2026-04-30 18:11 | 32.20093 | 120.32078 | 37879 ft | 356 kts | 282° |
| 2026-04-30 18:12 | 32.20807 | 120.23365 | 38465 ft | 355 kts | 281° |
| 2026-04-30 18:13 | 32.21282 | 120.17555 | 38683 ft | 356 kts | 281° |
| 2026-04-30 18:13 | 32.21924 | 120.09657 | 38918 ft | 358 kts | 281° |
| 2026-04-30 18:14 | 32.22482 | 120.02736 | 39088 ft | 359 kts | 281° |
| 2026-04-30 18:15 | 32.23199 | 119.93753 | 39242 ft | 360 kts | 282° |
| 2026-04-30 18:15 | 32.23921 | 119.84805 | 39290 ft | 361 kts | 283° |
| 2026-04-30 18:16 | 32.25267 | 119.79117 | 39348 ft | 354 kts | 296° |
| 2026-04-30 18:16 | 32.27816 | 119.74035 | 39359 ft | 354 kts | 306° |
| 2026-04-30 18:17 | 32.31426 | 119.69855 | 39378 ft | 359 kts | 319° |
| 2026-04-30 18:18 | 32.37746 | 119.64895 | 39444 ft | 360 kts | 320° |
| 2026-04-30 18:18 | 32.41880 | 119.61415 | 39476 ft | 360 kts | 320° |
| 2026-04-30 18:19 | 32.46009 | 119.57886 | 39454 ft | 361 kts | 320° |
| 2026-04-30 18:19 | 32.50095 | 119.54367 | 39471 ft | 361 kts | 320° |
| 2026-04-30 18:20 | 32.54179 | 119.50840 | 39462 ft | 361 kts | 320° |
| 2026-04-30 18:20 | 32.58282 | 119.47296 | 39412 ft | 362 kts | 321° |
| 2026-04-30 18:21 | 32.62364 | 119.43758 | 39437 ft | 362 kts | 320° |
| 2026-04-30 18:21 | 32.66470 | 119.40203 | 39407 ft | 362 kts | 321° |
| 2026-04-30 18:22 | 32.70545 | 119.36665 | 39371 ft | 363 kts | 321° |
| 2026-04-30 18:22 | 32.76642 | 119.31368 | 39405 ft | 359 kts | 320° |
| 2026-04-30 18:23 | 32.78666 | 119.29610 | 39181 ft | 350 kts | 320° |
| 2026-04-30 18:23 | 32.80632 | 119.27898 | 39395 ft | 345 kts | 321° |